sensor_id;sensor_type;location;lat;lon;timestamp;pressure;altitude;pressure_sealevel;temperature;humidity
59116;BME280;53564;51.930;4.640;2022-11-03T00:01:38;101399.25;;;13.57;65.00
59116;BME280;53564;51.930;4.640;2022-11-03T00:04:05;101398.97;;;13.37;65.55
59116;BME280;53564;51.930;4.640;2022-11-03T00:06:31;101392.66;;;13.41;65.63
59116;BME280;53564;51.930;4.640;2022-11-03T00:08:58;101389.66;;;13.52;65.50
59116;BME280;53564;51.930;4.640;2022-11-03T00:11:24;101385.13;;;13.25;65.69
59116;BME280;53564;51.930;4.640;2022-11-03T00:13:49;101391.25;;;13.27;66.58
59116;BME280;53564;51.930;4.640;2022-11-03T00:16:14;101385.63;;;13.38;66.13
59116;BME280;53564;51.930;4.640;2022-11-03T00:18:40;101368.09;;;13.59;65.07
59116;BME280;53564;51.930;4.640;2022-11-03T00:21:10;101385.06;;;13.27;65.84
59116;BME280;53564;51.930;4.640;2022-11-03T00:23:40;101371.88;;;13.52;65.21
59116;BME280;53564;51.930;4.640;2022-11-03T00:26:09;101378.69;;;13.33;65.88
59116;BME280;53564;51.930;4.640;2022-11-03T00:28:36;101383.44;;;13.51;65.35
59116;BME280;53564;51.930;4.640;2022-11-03T00:31:09;101351.94;;;13.36;65.23
59116;BME280;53564;51.930;4.640;2022-11-03T00:33:36;101366.25;;;13.33;66.00
59116;BME280;53564;51.930;4.640;2022-11-03T00:36:03;101360.81;;;13.38;65.45
59116;BME280;53564;51.930;4.640;2022-11-03T00:38:29;101357.00;;;13.17;66.38
59116;BME280;53564;51.930;4.640;2022-11-03T00:40:56;101346.94;;;13.26;66.39
59116;BME280;53564;51.930;4.640;2022-11-03T00:43:22;101357.84;;;13.17;66.59
59116;BME280;53564;51.930;4.640;2022-11-03T00:45:48;101360.00;;;13.34;66.43
59116;BME280;53564;51.930;4.640;2022-11-03T00:48:14;101332.59;;;13.31;65.92
59116;BME280;53564;51.930;4.640;2022-11-03T00:51:14;101353.03;;;13.58;65.44
59116;BME280;53564;51.930;4.640;2022-11-03T00:53:42;101349.25;;;13.37;66.12
59116;BME280;53564;51.930;4.640;2022-11-03T00:56:13;101345.84;;;13.32;65.98
59116;BME280;53564;51.930;4.640;2022-11-03T00:58:40;101338.22;;;13.50;65.87
59116;BME280;53564;51.930;4.640;2022-11-03T01:01:09;101341.97;;;13.14;67.15
59116;BME280;53564;51.930;4.640;2022-11-03T01:03:37;101339.94;;;13.22;65.94
59116;BME280;53564;51.930;4.640;2022-11-03T01:06:10;101334.72;;;13.48;65.57
59116;BME280;53564;51.930;4.640;2022-11-03T01:08:55;101353.78;;;13.34;65.67
59116;BME280;53564;51.930;4.640;2022-11-03T01:11:22;101338.22;;;13.50;65.68
59116;BME280;53564;51.930;4.640;2022-11-03T01:14:08;101334.22;;;13.35;66.10
59116;BME280;53564;51.930;4.640;2022-11-03T01:16:34;101333.31;;;13.36;66.19
59116;BME280;53564;51.930;4.640;2022-11-03T01:18:59;101304.13;;;13.33;65.52
59116;BME280;53564;51.930;4.640;2022-11-03T01:21:25;101324.47;;;13.34;65.91
59116;BME280;53564;51.930;4.640;2022-11-03T01:23:50;101319.88;;;13.40;65.75
59116;BME280;53564;51.930;4.640;2022-11-03T01:26:16;101324.44;;;13.35;66.22
59116;BME280;53564;51.930;4.640;2022-11-03T01:28:43;101320.69;;;13.14;66.34
59116;BME280;53564;51.930;4.640;2022-11-03T01:31:17;101323.03;;;13.23;66.45
59116;BME280;53564;51.930;4.640;2022-11-03T01:33:44;101315.25;;;13.17;66.61
59116;BME280;53564;51.930;4.640;2022-11-03T01:36:10;101300.41;;;13.37;65.93
59116;BME280;53564;51.930;4.640;2022-11-03T01:38:37;101308.38;;;13.38;66.02
59116;BME280;53564;51.930;4.640;2022-11-03T01:41:04;101310.03;;;13.14;66.56
59116;BME280;53564;51.930;4.640;2022-11-03T01:43:31;101306.41;;;13.15;66.93
59116;BME280;53564;51.930;4.640;2022-11-03T01:48:33;101290.81;;;13.33;66.24
59116;BME280;53564;51.930;4.640;2022-11-03T01:51:02;101287.38;;;13.27;66.55
59116;BME280;53564;51.930;4.640;2022-11-03T01:53:29;101290.47;;;13.43;65.88
59116;BME280;53564;51.930;4.640;2022-11-03T01:55:55;101282.75;;;13.34;66.17
59116;BME280;53564;51.930;4.640;2022-11-03T01:58:26;101274.69;;;13.36;65.94
59116;BME280;53564;51.930;4.640;2022-11-03T02:00:54;101281.06;;;13.32;65.72
59116;BME280;53564;51.930;4.640;2022-11-03T02:03:21;101282.41;;;13.45;65.54
59116;BME280;53564;51.930;4.640;2022-11-03T02:05:48;101284.44;;;13.37;66.44
59116;BME280;53564;51.930;4.640;2022-11-03T02:08:18;101267.25;;;13.47;65.51
59116;BME280;53564;51.930;4.640;2022-11-03T02:10:49;101261.22;;;13.42;65.53
59116;BME280;53564;51.930;4.640;2022-11-03T02:13:19;101269.56;;;13.29;66.11
59116;BME280;53564;51.930;4.640;2022-11-03T02:15:50;101266.13;;;13.26;66.44
59116;BME280;53564;51.930;4.640;2022-11-03T02:18:18;101259.44;;;13.14;67.02
59116;BME280;53564;51.930;4.640;2022-11-03T02:20:54;101258.28;;;13.21;66.91
59116;BME280;53564;51.930;4.640;2022-11-03T02:23:28;101252.16;;;13.19;67.06
59116;BME280;53564;51.930;4.640;2022-11-03T02:25:57;101241.00;;;13.35;66.76
59116;BME280;53564;51.930;4.640;2022-11-03T02:28:25;101231.56;;;13.24;67.62
59116;BME280;53564;51.930;4.640;2022-11-03T02:31:11;101240.03;;;13.10;67.33
59116;BME280;53564;51.930;4.640;2022-11-03T02:36:42;101232.44;;;13.25;66.63
59116;BME280;53564;51.930;4.640;2022-11-03T02:41:42;101216.78;;;13.16;67.01
59116;BME280;53564;51.930;4.640;2022-11-03T02:44:16;101212.59;;;13.34;67.38
59116;BME280;53564;51.930;4.640;2022-11-03T02:46:44;101205.72;;;13.28;67.01
59116;BME280;53564;51.930;4.640;2022-11-03T02:49:11;101187.41;;;13.17;66.96
59116;BME280;53564;51.930;4.640;2022-11-03T02:51:36;101174.31;;;13.11;67.96
59116;BME280;53564;51.930;4.640;2022-11-03T02:54:06;101179.66;;;13.36;67.17
59116;BME280;53564;51.930;4.640;2022-11-03T02:56:38;101183.50;;;13.27;67.20
59116;BME280;53564;51.930;4.640;2022-11-03T02:59:11;101184.63;;;13.22;67.35
59116;BME280;53564;51.930;4.640;2022-11-03T03:01:41;101180.25;;;13.19;67.83
59116;BME280;53564;51.930;4.640;2022-11-03T03:04:36;101174.81;;;13.22;67.04
59116;BME280;53564;51.930;4.640;2022-11-03T03:07:06;101171.25;;;13.23;67.35
59116;BME280;53564;51.930;4.640;2022-11-03T03:12:27;101162.50;;;13.47;66.94
59116;BME280;53564;51.930;4.640;2022-11-03T03:14:53;101157.09;;;13.21;67.40
59116;BME280;53564;51.930;4.640;2022-11-03T03:17:28;101163.97;;;13.28;67.69
59116;BME280;53564;51.930;4.640;2022-11-03T03:20:19;101156.28;;;13.46;66.90
59116;BME280;53564;51.930;4.640;2022-11-03T03:22:54;101146.16;;;13.31;67.41
59116;BME280;53564;51.930;4.640;2022-11-03T03:25:25;101144.81;;;13.17;67.37
59116;BME280;53564;51.930;4.640;2022-11-03T03:28:09;101138.66;;;13.15;67.83
59116;BME280;53564;51.930;4.640;2022-11-03T03:30:36;101142.16;;;13.17;67.85
59116;BME280;53564;51.930;4.640;2022-11-03T03:33:04;101129.72;;;13.18;68.12
59116;BME280;53564;51.930;4.640;2022-11-03T03:35:32;101141.66;;;13.06;67.88
59116;BME280;53564;51.930;4.640;2022-11-03T03:38:04;101129.16;;;13.08;68.08
59116;BME280;53564;51.930;4.640;2022-11-03T03:40:34;101130.69;;;13.15;67.88
59116;BME280;53564;51.930;4.640;2022-11-03T03:43:03;101133.53;;;13.10;68.41
59116;BME280;53564;51.930;4.640;2022-11-03T03:45:30;101137.13;;;13.35;67.64
59116;BME280;53564;51.930;4.640;2022-11-03T03:47:57;101134.06;;;13.20;67.74
59116;BME280;53564;51.930;4.640;2022-11-03T03:50:24;101129.84;;;13.40;67.59
59116;BME280;53564;51.930;4.640;2022-11-03T03:52:59;101113.06;;;13.11;67.66
59116;BME280;53564;51.930;4.640;2022-11-03T03:55:33;101126.47;;;13.35;67.85
59116;BME280;53564;51.930;4.640;2022-11-03T03:57:59;101124.53;;;13.40;67.76
59116;BME280;53564;51.930;4.640;2022-11-03T04:00:25;101121.78;;;13.16;68.37
59116;BME280;53564;51.930;4.640;2022-11-03T04:02:50;101117.53;;;13.10;68.26
59116;BME280;53564;51.930;4.640;2022-11-03T04:05:15;101097.47;;;13.00;68.09
59116;BME280;53564;51.930;4.640;2022-11-03T04:07:41;101106.84;;;13.12;68.02
59116;BME280;53564;51.930;4.640;2022-11-03T04:10:16;101101.63;;;12.82;68.63
59116;BME280;53564;51.930;4.640;2022-11-03T04:12:43;101120.75;;;13.20;67.99
59116;BME280;53564;51.930;4.640;2022-11-03T04:15:28;101107.88;;;13.08;68.23
59116;BME280;53564;51.930;4.640;2022-11-03T04:18:12;101109.91;;;13.26;67.92
59116;BME280;53564;51.930;4.640;2022-11-03T04:20:56;101109.16;;;13.21;68.18
59116;BME280;53564;51.930;4.640;2022-11-03T04:23:40;101104.38;;;13.31;68.24
59116;BME280;53564;51.930;4.640;2022-11-03T04:26:10;101097.78;;;13.43;67.51
59116;BME280;53564;51.930;4.640;2022-11-03T04:28:36;101092.69;;;13.10;67.85
59116;BME280;53564;51.930;4.640;2022-11-03T04:31:02;101096.16;;;13.39;67.59
59116;BME280;53564;51.930;4.640;2022-11-03T04:33:28;101094.09;;;13.47;67.26
59116;BME280;53564;51.930;4.640;2022-11-03T04:35:57;101084.28;;;13.22;67.96
59116;BME280;53564;51.930;4.640;2022-11-03T04:38:25;101076.91;;;13.31;67.72
59116;BME280;53564;51.930;4.640;2022-11-03T04:40:56;101074.75;;;13.15;68.04
59116;BME280;53564;51.930;4.640;2022-11-03T04:43:27;101076.78;;;13.34;67.68
59116;BME280;53564;51.930;4.640;2022-11-03T04:45:54;101068.38;;;13.21;68.27
59116;BME280;53564;51.930;4.640;2022-11-03T04:48:23;101055.47;;;13.34;68.66
59116;BME280;53564;51.930;4.640;2022-11-03T04:50:51;101064.41;;;13.33;68.35
59116;BME280;53564;51.930;4.640;2022-11-03T04:53:19;101072.16;;;13.13;68.59
59116;BME280;53564;51.930;4.640;2022-11-03T04:55:47;101073.41;;;13.28;67.89
59116;BME280;53564;51.930;4.640;2022-11-03T05:00:43;101056.50;;;13.29;68.54
59116;BME280;53564;51.930;4.640;2022-11-03T05:03:14;101048.53;;;13.29;68.16
59116;BME280;53564;51.930;4.640;2022-11-03T05:05:41;101047.34;;;13.13;68.91
59116;BME280;53564;51.930;4.640;2022-11-03T05:08:07;101029.13;;;13.26;67.98
59116;BME280;53564;51.930;4.640;2022-11-03T05:10:33;101042.38;;;13.27;68.98
59116;BME280;53564;51.930;4.640;2022-11-03T05:12:59;101030.31;;;13.17;68.51
59116;BME280;53564;51.930;4.640;2022-11-03T05:15:41;101043.16;;;13.06;69.09
59116;BME280;53564;51.930;4.640;2022-11-03T05:18:19;101027.19;;;13.06;69.27
59116;BME280;53564;51.930;4.640;2022-11-03T05:21:12;101030.47;;;12.87;69.29
59116;BME280;53564;51.930;4.640;2022-11-03T05:23:41;101014.44;;;12.90;69.58
59116;BME280;53564;51.930;4.640;2022-11-03T05:26:18;101012.66;;;13.15;68.68
59116;BME280;53564;51.930;4.640;2022-11-03T05:29:20;101009.97;;;12.91;69.63
59116;BME280;53564;51.930;4.640;2022-11-03T05:31:39;101000.97;;;13.19;69.85
59116;BME280;53564;51.930;4.640;2022-11-03T05:34:20;100995.38;;;13.26;68.74
59116;BME280;53564;51.930;4.640;2022-11-03T05:36:49;100992.56;;;13.06;69.18
59116;BME280;53564;51.930;4.640;2022-11-03T05:39:39;100997.09;;;13.27;69.08
59116;BME280;53564;51.930;4.640;2022-11-03T05:42:50;100981.78;;;13.09;69.09
59116;BME280;53564;51.930;4.640;2022-11-03T05:45:34;100976.38;;;13.12;69.47
59116;BME280;53564;51.930;4.640;2022-11-03T05:50:54;100968.47;;;13.09;70.10
59116;BME280;53564;51.930;4.640;2022-11-03T05:53:28;100955.31;;;13.06;69.08
59116;BME280;53564;51.930;4.640;2022-11-03T05:55:56;100973.25;;;13.01;69.25
59116;BME280;53564;51.930;4.640;2022-11-03T05:58:29;100956.69;;;13.16;69.32
59116;BME280;53564;51.930;4.640;2022-11-03T06:00:55;100977.16;;;12.90;69.75
59116;BME280;53564;51.930;4.640;2022-11-03T06:03:29;100984.81;;;13.00;70.01
59116;BME280;53564;51.930;4.640;2022-11-03T06:05:56;100958.44;;;13.17;69.79
59116;BME280;53564;51.930;4.640;2022-11-03T06:08:29;100962.47;;;13.04;70.62
59116;BME280;53564;51.930;4.640;2022-11-03T06:10:58;100949.44;;;12.96;70.12
59116;BME280;53564;51.930;4.640;2022-11-03T06:13:35;100961.69;;;13.25;69.27
59116;BME280;53564;51.930;4.640;2022-11-03T06:16:05;100964.66;;;12.92;70.16
59116;BME280;53564;51.930;4.640;2022-11-03T06:18:35;100942.91;;;13.05;70.18
59116;BME280;53564;51.930;4.640;2022-11-03T06:21:27;100949.06;;;13.31;69.35
59116;BME280;53564;51.930;4.640;2022-11-03T06:23:52;100944.28;;;13.15;70.05
59116;BME280;53564;51.930;4.640;2022-11-03T06:26:24;100925.41;;;12.98;70.36
59116;BME280;53564;51.930;4.640;2022-11-03T06:28:51;100934.59;;;13.14;70.45
59116;BME280;53564;51.930;4.640;2022-11-03T06:31:22;100931.19;;;13.10;69.79
59116;BME280;53564;51.930;4.640;2022-11-03T06:33:49;100929.81;;;13.22;70.85
59116;BME280;53564;51.930;4.640;2022-11-03T06:36:18;100908.06;;;13.35;70.65
59116;BME280;53564;51.930;4.640;2022-11-03T06:39:20;100930.28;;;13.34;70.44
59116;BME280;53564;51.930;4.640;2022-11-03T06:41:46;100925.63;;;13.17;70.49
59116;BME280;53564;51.930;4.640;2022-11-03T06:44:22;100924.75;;;13.16;70.29
59116;BME280;53564;51.930;4.640;2022-11-03T06:46:48;100929.91;;;13.44;70.18
59116;BME280;53564;51.930;4.640;2022-11-03T06:49:33;100926.38;;;13.20;70.16
59116;BME280;53564;51.930;4.640;2022-11-03T06:52:22;100920.69;;;13.29;70.21
59116;BME280;53564;51.930;4.640;2022-11-03T06:54:50;100922.28;;;13.34;70.33
59116;BME280;53564;51.930;4.640;2022-11-03T06:57:18;100915.59;;;13.47;69.03
59116;BME280;53564;51.930;4.640;2022-11-03T06:59:43;100920.91;;;13.23;69.66
59116;BME280;53564;51.930;4.640;2022-11-03T07:02:31;100914.97;;;13.17;70.21
59116;BME280;53564;51.930;4.640;2022-11-03T07:05:09;100928.09;;;13.21;70.14
59116;BME280;53564;51.930;4.640;2022-11-03T07:07:41;100919.53;;;13.37;69.93
59116;BME280;53564;51.930;4.640;2022-11-03T07:10:07;100917.84;;;13.34;70.16
59116;BME280;53564;51.930;4.640;2022-11-03T07:12:33;100923.53;;;13.49;69.36
59116;BME280;53564;51.930;4.640;2022-11-03T07:14:58;100904.72;;;13.53;69.90
59116;BME280;53564;51.930;4.640;2022-11-03T07:17:24;100915.13;;;13.36;69.79
59116;BME280;53564;51.930;4.640;2022-11-03T07:19:49;100917.44;;;13.21;69.98
59116;BME280;53564;51.930;4.640;2022-11-03T07:22:21;100918.66;;;13.36;69.61
59116;BME280;53564;51.930;4.640;2022-11-03T07:24:49;100905.75;;;13.25;70.34
59116;BME280;53564;51.930;4.640;2022-11-03T07:27:51;100909.91;;;13.09;71.10
59116;BME280;53564;51.930;4.640;2022-11-03T07:30:20;100900.13;;;13.33;70.60
59116;BME280;53564;51.930;4.640;2022-11-03T07:32:50;100904.59;;;13.33;70.17
59116;BME280;53564;51.930;4.640;2022-11-03T07:37:42;100897.81;;;13.24;70.48
59116;BME280;53564;51.930;4.640;2022-11-03T07:40:13;100904.38;;;13.39;69.99
59116;BME280;53564;51.930;4.640;2022-11-03T07:42:41;100904.72;;;13.29;70.31
59116;BME280;53564;51.930;4.640;2022-11-03T07:45:32;100907.63;;;13.47;70.24
59116;BME280;53564;51.930;4.640;2022-11-03T07:48:10;100876.78;;;13.41;70.50
59116;BME280;53564;51.930;4.640;2022-11-03T07:50:38;100896.13;;;13.21;70.87
59116;BME280;53564;51.930;4.640;2022-11-03T07:53:10;100892.47;;;13.48;70.96
59116;BME280;53564;51.930;4.640;2022-11-03T07:55:37;100886.69;;;13.36;70.73
59116;BME280;53564;51.930;4.640;2022-11-03T07:58:16;100878.38;;;13.46;71.44
59116;BME280;53564;51.930;4.640;2022-11-03T08:00:44;100873.56;;;13.55;70.95
59116;BME280;53564;51.930;4.640;2022-11-03T08:03:20;100880.72;;;13.53;70.68
59116;BME280;53564;51.930;4.640;2022-11-03T08:05:49;100870.25;;;13.71;71.57
59116;BME280;53564;51.930;4.640;2022-11-03T08:08:14;100870.81;;;13.79;70.41
59116;BME280;53564;51.930;4.640;2022-11-03T08:10:40;100869.81;;;13.59;70.66
59116;BME280;53564;51.930;4.640;2022-11-03T08:13:05;100860.91;;;13.60;70.64
59116;BME280;53564;51.930;4.640;2022-11-03T08:15:30;100839.59;;;13.60;71.06
59116;BME280;53564;51.930;4.640;2022-11-03T08:17:55;100845.66;;;13.64;70.68
59116;BME280;53564;51.930;4.640;2022-11-03T08:20:21;100851.75;;;13.88;69.89
59116;BME280;53564;51.930;4.640;2022-11-03T08:22:46;100842.94;;;13.66;70.63
59116;BME280;53564;51.930;4.640;2022-11-03T08:25:11;100841.34;;;13.62;70.63
59116;BME280;53564;51.930;4.640;2022-11-03T08:27:36;100832.34;;;13.64;71.16
59116;BME280;53564;51.930;4.640;2022-11-03T08:30:02;100826.81;;;13.69;70.76
59116;BME280;53564;51.930;4.640;2022-11-03T08:32:27;100818.59;;;13.53;71.21
59116;BME280;53564;51.930;4.640;2022-11-03T08:34:52;100815.88;;;13.75;70.50
59116;BME280;53564;51.930;4.640;2022-11-03T08:37:18;100818.94;;;13.66;70.82
59116;BME280;53564;51.930;4.640;2022-11-03T08:39:43;100815.84;;;13.97;70.34
59116;BME280;53564;51.930;4.640;2022-11-03T08:42:08;100806.06;;;13.98;70.27
59116;BME280;53564;51.930;4.640;2022-11-03T08:44:33;100780.72;;;13.87;69.78
59116;BME280;53564;51.930;4.640;2022-11-03T08:46:59;100792.63;;;13.58;71.21
59116;BME280;53564;51.930;4.640;2022-11-03T08:49:24;100775.63;;;13.83;70.94
59116;BME280;53564;51.930;4.640;2022-11-03T08:51:49;100772.63;;;13.90;71.24
59116;BME280;53564;51.930;4.640;2022-11-03T08:54:14;100774.13;;;13.75;71.16
59116;BME280;53564;51.930;4.640;2022-11-03T08:56:40;100770.03;;;13.89;70.66
59116;BME280;53564;51.930;4.640;2022-11-03T08:59:05;100760.88;;;13.95;71.23
59116;BME280;53564;51.930;4.640;2022-11-03T09:01:31;100743.16;;;13.73;70.82
59116;BME280;53564;51.930;4.640;2022-11-03T09:03:56;100757.09;;;14.00;70.49
59116;BME280;53564;51.930;4.640;2022-11-03T09:06:22;100748.41;;;13.95;70.99
59116;BME280;53564;51.930;4.640;2022-11-03T09:08:48;100742.16;;;14.36;69.76
59116;BME280;53564;51.930;4.640;2022-11-03T09:11:13;100733.59;;;14.08;69.67
59116;BME280;53564;51.930;4.640;2022-11-03T09:13:38;100732.22;;;14.00;70.05
59116;BME280;53564;51.930;4.640;2022-11-03T09:16:04;100728.97;;;13.93;70.35
59116;BME280;53564;51.930;4.640;2022-11-03T09:18:29;100721.94;;;14.11;69.83
59116;BME280;53564;51.930;4.640;2022-11-03T09:20:56;100713.97;;;14.30;69.58
59116;BME280;53564;51.930;4.640;2022-11-03T09:23:21;100689.09;;;14.30;69.15
59116;BME280;53564;51.930;4.640;2022-11-03T09:25:46;100693.25;;;14.16;69.17
59116;BME280;53564;51.930;4.640;2022-11-03T09:28:12;100692.47;;;14.14;69.52
59116;BME280;53564;51.930;4.640;2022-11-03T09:30:37;100689.66;;;14.17;70.11
59116;BME280;53564;51.930;4.640;2022-11-03T09:33:02;100687.88;;;14.37;68.89
59116;BME280;53564;51.930;4.640;2022-11-03T09:35:28;100682.03;;;14.29;68.71
59116;BME280;53564;51.930;4.640;2022-11-03T09:37:53;100681.72;;;14.16;69.65
59116;BME280;53564;51.930;4.640;2022-11-03T09:40:18;100687.06;;;14.16;70.07
59116;BME280;53564;51.930;4.640;2022-11-03T09:42:45;100667.47;;;14.17;69.26
59116;BME280;53564;51.930;4.640;2022-11-03T09:45:11;100680.81;;;14.17;69.60
59116;BME280;53564;51.930;4.640;2022-11-03T09:47:38;100660.56;;;14.13;69.40
59116;BME280;53564;51.930;4.640;2022-11-03T09:50:05;100668.19;;;14.20;69.40
59116;BME280;53564;51.930;4.640;2022-11-03T09:52:32;100653.84;;;14.42;68.35
59116;BME280;53564;51.930;4.640;2022-11-03T09:54:58;100649.75;;;14.54;68.26
59116;BME280;53564;51.930;4.640;2022-11-03T09:57:26;100657.50;;;14.58;67.99
59116;BME280;53564;51.930;4.640;2022-11-03T09:59:52;100653.63;;;14.66;68.31
59116;BME280;53564;51.930;4.640;2022-11-03T10:02:25;100648.72;;;14.76;67.51
59116;BME280;53564;51.930;4.640;2022-11-03T10:04:51;100640.44;;;14.63;67.60
59116;BME280;53564;51.930;4.640;2022-11-03T10:07:18;100645.56;;;14.67;67.35
59116;BME280;53564;51.930;4.640;2022-11-03T10:09:46;100638.63;;;14.44;67.93
59116;BME280;53564;51.930;4.640;2022-11-03T10:12:12;100636.75;;;14.46;68.14
59116;BME280;53564;51.930;4.640;2022-11-03T10:14:39;100636.44;;;14.52;67.88
59116;BME280;53564;51.930;4.640;2022-11-03T10:17:05;100627.91;;;14.82;67.47
59116;BME280;53564;51.930;4.640;2022-11-03T10:19:30;100630.69;;;14.62;67.80
59116;BME280;53564;51.930;4.640;2022-11-03T10:21:55;100620.06;;;14.79;67.51
59116;BME280;53564;51.930;4.640;2022-11-03T10:24:21;100625.66;;;14.17;68.75
59116;BME280;53564;51.930;4.640;2022-11-03T10:26:51;100608.78;;;14.74;67.40
59116;BME280;53564;51.930;4.640;2022-11-03T10:29:24;100609.09;;;14.85;67.02
59116;BME280;53564;51.930;4.640;2022-11-03T10:31:51;100590.16;;;14.53;67.79
59116;BME280;53564;51.930;4.640;2022-11-03T10:34:37;100598.28;;;14.33;68.23
59116;BME280;53564;51.930;4.640;2022-11-03T10:37:24;100588.50;;;14.87;67.33
59116;BME280;53564;51.930;4.640;2022-11-03T10:39:53;100579.19;;;14.60;67.90
59116;BME280;53564;51.930;4.640;2022-11-03T10:42:25;100572.91;;;14.97;67.06
59116;BME280;53564;51.930;4.640;2022-11-03T10:44:52;100572.66;;;15.19;65.73
59116;BME280;53564;51.930;4.640;2022-11-03T10:47:24;100565.97;;;15.28;66.21
59116;BME280;53564;51.930;4.640;2022-11-03T10:49:49;100577.03;;;14.68;67.43
59116;BME280;53564;51.930;4.640;2022-11-03T10:52:18;100569.28;;;14.81;67.04
59116;BME280;53564;51.930;4.640;2022-11-03T10:54:45;100544.84;;;15.06;66.56
59116;BME280;53564;51.930;4.640;2022-11-03T10:57:10;100545.94;;;15.19;66.53
59116;BME280;53564;51.930;4.640;2022-11-03T10:59:37;100548.13;;;15.46;65.72
59116;BME280;53564;51.930;4.640;2022-11-03T11:02:08;100537.59;;;15.43;65.37
59116;BME280;53564;51.930;4.640;2022-11-03T11:04:37;100536.34;;;15.33;65.27
59116;BME280;53564;51.930;4.640;2022-11-03T11:07:02;100536.69;;;15.27;65.60
59116;BME280;53564;51.930;4.640;2022-11-03T11:09:27;100546.03;;;15.18;65.68
59116;BME280;53564;51.930;4.640;2022-11-03T11:12:06;100538.63;;;15.41;64.88
59116;BME280;53564;51.930;4.640;2022-11-03T11:14:59;100513.78;;;15.38;64.65
59116;BME280;53564;51.930;4.640;2022-11-03T11:20:18;100514.75;;;15.53;64.76
59116;BME280;53564;51.930;4.640;2022-11-03T11:22:48;100509.63;;;15.33;65.21
59116;BME280;53564;51.930;4.640;2022-11-03T11:25:14;100507.13;;;15.30;65.61
59116;BME280;53564;51.930;4.640;2022-11-03T11:37:46;100482.00;;;15.34;65.21
59116;BME280;53564;51.930;4.640;2022-11-03T11:40:13;100455.97;;;15.53;64.87
59116;BME280;53564;51.930;4.640;2022-11-03T11:48:31;100435.72;;;15.81;63.64
59116;BME280;53564;51.930;4.640;2022-11-03T11:50:59;100441.91;;;15.50;64.26
59116;BME280;53564;51.930;4.640;2022-11-03T11:53:26;100437.63;;;15.79;63.88
59116;BME280;53564;51.930;4.640;2022-11-03T11:55:56;100429.53;;;15.97;63.30
59116;BME280;53564;51.930;4.640;2022-11-03T11:58:30;100432.72;;;15.55;64.45
59116;BME280;53564;51.930;4.640;2022-11-03T12:01:03;100420.13;;;15.58;64.48
59116;BME280;53564;51.930;4.640;2022-11-03T12:03:36;100416.78;;;15.70;63.99
59116;BME280;53564;51.930;4.640;2022-11-03T12:06:03;100409.09;;;15.64;63.79
59116;BME280;53564;51.930;4.640;2022-11-03T12:08:30;100405.38;;;15.82;63.71
59116;BME280;53564;51.930;4.640;2022-11-03T12:11:01;100381.41;;;15.65;63.59
59116;BME280;53564;51.930;4.640;2022-11-03T12:13:41;100372.97;;;15.73;63.31
59116;BME280;53564;51.930;4.640;2022-11-03T12:16:30;100378.31;;;15.57;63.56
59116;BME280;53564;51.930;4.640;2022-11-03T12:18:56;100382.78;;;15.72;63.38
59116;BME280;53564;51.930;4.640;2022-11-03T12:21:47;100390.97;;;16.01;62.41
59116;BME280;53564;51.930;4.640;2022-11-03T12:26:54;100367.38;;;16.38;61.88
59116;BME280;53564;51.930;4.640;2022-11-03T12:29:19;100355.56;;;16.57;61.52
59116;BME280;53564;51.930;4.640;2022-11-03T12:31:46;100350.66;;;16.34;61.29
59116;BME280;53564;51.930;4.640;2022-11-03T12:34:11;100345.72;;;16.12;62.09
59116;BME280;53564;51.930;4.640;2022-11-03T12:36:36;100347.13;;;16.34;61.22
59116;BME280;53564;51.930;4.640;2022-11-03T12:39:02;100352.53;;;16.63;61.21
59116;BME280;53564;51.930;4.640;2022-11-03T12:41:27;100341.44;;;16.69;60.94
59116;BME280;53564;51.930;4.640;2022-11-03T12:43:52;100337.97;;;16.67;60.63
59116;BME280;53564;51.930;4.640;2022-11-03T12:46:20;100312.56;;;17.03;59.83
59116;BME280;53564;51.930;4.640;2022-11-03T12:48:46;100314.47;;;16.72;60.86
59116;BME280;53564;51.930;4.640;2022-11-03T12:51:17;100308.91;;;16.90;60.74
59116;BME280;53564;51.930;4.640;2022-11-03T12:53:43;100296.50;;;16.74;60.17
59116;BME280;53564;51.930;4.640;2022-11-03T12:56:10;100297.84;;;16.81;59.99
59116;BME280;53564;51.930;4.640;2022-11-03T12:58:35;100304.69;;;16.28;61.07
59116;BME280;53564;51.930;4.640;2022-11-03T13:01:02;100284.06;;;16.44;60.73
59116;BME280;53564;51.930;4.640;2022-11-03T13:03:28;100260.38;;;16.52;60.71
59116;BME280;53564;51.930;4.640;2022-11-03T13:05:53;100261.13;;;16.69;60.52
59116;BME280;53564;51.930;4.640;2022-11-03T13:08:19;100272.78;;;16.54;61.14
59116;BME280;53564;51.930;4.640;2022-11-03T13:10:44;100266.97;;;16.61;60.87
59116;BME280;53564;51.930;4.640;2022-11-03T13:13:09;100267.25;;;16.57;60.84
59116;BME280;53564;51.930;4.640;2022-11-03T13:15:34;100248.47;;;16.71;59.89
59116;BME280;53564;51.930;4.640;2022-11-03T13:18:00;100248.22;;;16.61;60.25
59116;BME280;53564;51.930;4.640;2022-11-03T13:20:26;100231.84;;;16.66;59.73
59116;BME280;53564;51.930;4.640;2022-11-03T13:22:51;100235.13;;;16.57;60.28
59116;BME280;53564;51.930;4.640;2022-11-03T13:25:16;100227.06;;;16.71;59.76
59116;BME280;53564;51.930;4.640;2022-11-03T13:27:42;100226.44;;;16.67;59.97
59116;BME280;53564;51.930;4.640;2022-11-03T13:30:08;100231.38;;;16.74;60.66
59116;BME280;53564;51.930;4.640;2022-11-03T13:32:33;100212.78;;;16.29;60.68
59116;BME280;53564;51.930;4.640;2022-11-03T13:34:59;100227.09;;;16.57;59.60
59116;BME280;53564;51.930;4.640;2022-11-03T13:37:24;100227.47;;;16.65;60.06
59116;BME280;53564;51.930;4.640;2022-11-03T13:39:50;100231.13;;;16.21;60.80
59116;BME280;53564;51.930;4.640;2022-11-03T13:42:15;100231.69;;;16.26;60.71
59116;BME280;53564;51.930;4.640;2022-11-03T13:44:40;100225.75;;;16.64;59.80